Date,TemperatureHighF,TemperatureAvgF,TemperatureLowF,DewpointHighF,DewpointAvgF,DewpointLowF,HumidityHigh,HumidityAvg,HumidityLow,PressureMaxIn,PressureMinIn,WindSpeedMaxMPH,WindSpeedAvgMPH,GustSpeedMaxMPH,PrecipitationSumIn
2014-1-1,28.2,20.9,12.2,15.0,9.8,5.0,83,64,39,30.38,30.22,8,2,13,0.00
2014-1-2,19.1,7.4,1.2,16.0,4.1,-2.0,89,86,83,30.32,29.88,12,5,17,0.00
2014-1-3,9.6,1.4,-7.8,5.0,-3.0,-12.0,86,82,74,30.47,29.86,17,5,22,0.00
2014-1-4,24.1,9.0,-12.4,9.0,-1.1,-17.0,87,66,45,30.48,30.24,20,4,21,0.00
2014-1-5,33.9,22.5,3.5,32.0,16.3,0.0,97,78,55,30.30,29.75,9,2,17,0.02
2014-1-6,55.4,38.6,17.9,54.0,33.3,12.0,98,82,55,29.74,29.28,12,4,19,0.81
2014-1-7,15.9,8.0,2.8,8.0,-9.0,-13.0,72,47,35,30.28,29.65,11,3,22,0.00
2014-1-8,20.4,9.0,-2.0,10.0,-0.3,-7.0,83,67,45,30.50,30.28,7,1,10,0.00
2014-1-9,29.4,14.8,5.0,14.0,8.8,2.0,90,78,52,30.64,30.46,5,1,9,0.00
2014-1-10,36.2,29.6,21.6,34.0,24.4,12.0,93,81,61,30.54,30.19,11,3,17,0.00
2014-1-11,57.1,46.8,35.9,56.0,45.7,34.0,98,96,90,30.18,29.22,10,3,16,1.21
2014-1-12,48.7,40.6,28.5,46.0,30.5,24.0,90,68,56,30.01,29.33,14,3,19,0.01
2014-1-13,46.7,37.6,25.4,37.0,30.2,23.0,92,76,58,30.08,29.82,10,3,19,0.00
2014-1-14,46.8,43.4,34.0,43.0,39.4,33.0,97,87,67,29.82,29.67,8,2,15,0.35
2014-1-15,47.7,37.6,25.0,39.0,33.5,24.0,98,86,68,29.95,29.82,10,2,13,0.00
2014-1-16,37.0,31.5,28.6,33.0,27.5,25.0,93,85,77,29.96,29.88,9,2,12,0.02
2014-1-17,40.0,29.4,21.3,29.0,24.8,20.0,95,84,59,29.94,29.88,6,1,17,0.00
2014-1-18,30.8,27.5,24.5,29.0,24.2,21.0,95,87,74,29.88,29.66,11,2,13,0.00
2014-1-19,32.4,28.6,23.2,23.0,20.7,18.0,88,73,63,29.78,29.55,12,4,19,0.00
2014-1-20,32.6,25.7,19.3,26.0,16.6,11.0,83,69,63,29.93,29.54,9,4,20,0.03
2014-1-21,18.7,11.0,5.8,10.0,-0.5,-6.0,71,60,51,30.10,29.94,16,6,20,0.00
2014-1-22,11.4,4.3,-1.8,-3.0,-6.4,-10.0,72,62,49,30.02,29.85,16,7,22,0.00
2014-1-23,18.9,8.8,1.0,3.0,-1.9,-7.0,78,62,45,30.24,30.02,8,2,15,0.00
2014-1-24,20.4,11.7,-0.5,1.0,-1.8,-6.0,80,57,35,30.34,29.99,13,3,19,0.00
2014-1-25,19.1,18.5,17.9,15.0,14.8,14.0,86,86,85,29.40,29.38,5,3,8,0.00
2014-1-26,20.3,16.6,10.0,16.0,4.6,-2.0,88,60,39,29.84,29.42,15,4,24,0.01
2014-1-27,35.4,24.6,14.8,26.0,9.5,-7.0,74,55,28,30.09,29.50,16,5,23,0.00
2014-1-28,17.3,11.4,-0.8,-2.0,-6.4,-10.0,70,46,35,30.35,30.09,11,2,15,0.00
2014-1-29,25.4,13.6,0.0,3.0,-2.4,-7.0,86,52,27,30.26,30.01,9,2,11,0.00
2014-1-30,29.4,16.2,-1.0,8.0,1.6,-6.0,80,55,36,30.44,30.12,10,3,18,0.00
2014-1-31,35.1,27.5,21.7,20.0,12.6,7.0,72,54,45,30.20,30.03,13,3,18,0.00
2014-2-1,42.9,34.0,20.3,29.0,23.4,17.0,90,67,47,30.31,29.99,10,2,19,0.01
2014-2-2,40.7,37.6,33.2,37.0,33.1,26.0,94,84,68,30.12,29.85,8,2,14,0.07
2014-2-3,33.1,28.0,17.0,26.0,22.3,14.0,93,80,68,30.32,30.12,6,2,14,0.00
2014-2-4,30.0,23.0,13.6,22.0,16.3,10.0,88,76,60,30.49,30.28,7,1,8,0.07
2014-2-5,27.5,24.8,20.7,26.0,22.5,17.0,93,91,82,30.29,29.68,9,2,14,0.00
2014-2-6,25.1,15.8,2.3,16.0,9.1,-1.0,88,76,52,30.32,30.01,13,3,14,0.18
2014-2-7,32.7,12.1,-7.0,15.0,3.8,-11.0,88,71,42,30.29,30.17,4,1,8,0.11
2014-2-8,25.9,12.7,-3.3,7.0,2.6,-7.0,91,66,41,30.34,30.17,5,1,7,0.01
2014-2-9,26.9,19.7,7.2,20.0,11.7,4.0,90,72,52,30.19,29.95,8,2,12,0.00
2014-2-10,26.9,17.7,4.2,15.0,8.5,1.0,93,69,43,30.26,29.96,11,2,18,0.00
2014-2-11,24.0,14.0,3.6,7.0,3.0,-1.0,87,64,43,30.51,30.26,11,3,17,0.00
2014-2-12,23.2,12.0,-4.3,8.0,0.8,-8.0,87,63,40,30.59,30.34,5,2,10,0.00
2014-2-13,28.6,23.1,17.9,27.0,20.5,9.0,95,89,65,30.33,29.13,14,4,18,0.00
2014-2-14,38.5,30.1,24.0,29.0,25.2,20.0,96,83,59,29.75,29.04,13,4,22,0.10
2014-2-15,30.9,25.6,17.0,29.0,22.3,15.0,94,87,69,29.80,29.68,12,3,25,0.06
2014-2-16,26.8,22.8,17.6,18.0,11.2,7.0,75,62,50,30.09,29.72,14,6,24,0.00
2014-2-17,27.1,15.5,4.1,7.0,-0.5,-4.0,77,52,31,30.38,30.11,10,3,17,0.00
2014-2-18,30.1,20.4,6.9,26.0,14.4,1.0,93,79,42,30.31,29.94,7,2,12,0.04
2014-2-19,40.2,25.0,9.1,34.0,22.6,7.0,97,90,75,30.09,29.68,8,1,14,0.07
2014-2-20,46.9,37.1,23.5,34.0,28.3,22.0,95,73,44,30.20,29.98,7,2,15,0.37
2014-2-21,39.2,36.0,30.7,39.0,35.1,30.0,98,96,90,30.01,29.64,7,2,9,0.29
2014-2-22,54.8,41.5,31.4,33.0,25.9,20.0,98,59,26,29.94,29.82,12,4,28,0.00
2014-2-23,48.0,38.1,29.4,29.0,25.8,21.0,81,63,47,29.97,29.79,8,2,10,0.00
2014-2-24,33.7,27.7,20.9,24.0,11.8,4.0,70,52,36,30.03,29.80,13,4,24,0.00
2014-2-25,28.2,19.9,8.1,14.0,7.5,3.0,81,60,42,30.05,29.91,11,2,15,0.00
2014-2-26,27.5,15.0,4.0,10.0,0.8,-7.0,85,57,26,29.94,29.84,13,3,19,0.00
2014-2-27,27.8,14.7,1.0,15.0,0.5,-10.0,77,55,36,30.03,29.59,20,4,22,0.00
2014-2-28,20.9,10.1,-1.2,-3.0,-6.2,-10.0,76,50,30,30.43,30.03,9,2,14,0.00
2014-3-1,33.6,21.0,-2.2,14.0,4.5,-7.0,81,51,38,30.42,30.08,13,4,20,0.00
2014-3-2,33.6,28.1,19.4,21.0,14.9,9.0,74,58,49,30.13,30.01,13,4,17,0.00
2014-3-3,21.1,15.1,8.5,8.0,-1.4,-6.0,71,49,33,30.37,30.09,13,4,20,0.00
2014-3-4,23.8,13.9,-3.2,8.0,1.8,-7.0,85,60,40,30.42,30.25,8,1,15,0.00
2014-3-5,28.7,21.2,13.2,17.0,11.1,1.0,80,65,55,30.56,30.23,11,3,18,0.00
2014-3-6,29.7,14.8,-1.0,2.0,-1.2,-7.0,81,52,27,30.69,30.48,9,2,15,0.00
2014-3-7,40.2,25.0,8.2,24.0,14.2,-1.0,82,64,49,30.48,29.95,8,2,13,0.00
2014-3-8,48.6,34.1,16.8,29.0,24.5,15.0,93,70,44,29.94,29.77,7,1,14,0.00
2014-3-9,38.5,31.8,24.3,28.0,16.2,11.0,79,54,32,30.01,29.89,12,4,18,0.00
2014-3-10,45.6,36.2,24.9,31.0,23.9,14.0,75,62,49,29.88,29.53,11,2,14,0.00
2014-3-11,59.3,44.4,31.3,35.0,30.0,27.0,87,60,31,29.70,29.49,9,2,14,0.00
2014-3-12,40.8,33.9,22.0,36.0,30.0,19.0,95,86,66,29.70,29.11,10,2,14,0.32
2014-3-13,22.1,17.4,12.4,19.0,7.2,2.0,90,65,44,30.05,29.25,19,4,26,0.00
2014-3-14,41.2,26.2,9.7,25.0,12.6,5.0,84,59,39,30.16,29.83,15,4,21,0.02
2014-3-15,52.4,43.2,33.0,32.0,28.2,21.0,75,56,40,29.98,29.68,15,4,24,0.00
2014-3-16,34.0,26.5,18.9,20.0,8.0,1.0,60,46,34,30.23,29.98,11,5,21,0.00
2014-3-17,28.9,19.6,13.9,5.0,2.4,0.0,68,48,30,30.22,30.07,10,4,15,0.00
2014-3-18,43.1,24.9,10.0,14.0,8.1,4.0,82,53,23,30.32,30.16,4,1,8,0.00
2014-3-19,44.0,33.2,20.7,34.0,22.9,13.0,95,69,43,30.31,29.88,9,3,17,0.44
2014-3-20,48.8,40.5,34.2,41.0,30.4,22.0,97,71,42,29.87,29.66,11,3,20,0.01
2014-3-21,41.9,36.2,25.0,26.0,21.2,18.0,79,56,44,30.06,29.82,13,4,19,0.00
2014-3-22,54.6,37.2,22.5,34.0,25.5,18.0,88,65,36,30.06,29.70,13,4,25,0.00
2014-3-23,37.7,32.1,20.4,26.0,16.0,6.0,74,52,39,30.17,29.97,13,5,19,0.00
2014-3-24,32.2,23.1,13.4,9.0,6.0,2.0,77,50,30,30.23,30.08,13,4,17,0.00
2014-3-25,38.2,25.5,11.5,19.0,12.7,8.0,87,61,37,30.16,29.89,10,2,15,0.00
2014-3-26,31.9,27.1,21.5,21.0,10.6,1.0,78,52,34,30.18,29.81,19,7,30,0.00
2014-3-27,41.5,30.8,19.8,19.0,11.1,8.0,64,46,29,30.39,30.16,7,4,17,0.00
2014-3-28,49.2,40.5,36.1,47.0,32.9,19.0,94,76,47,30.17,29.89,11,4,19,0.25
2014-3-29,49.9,44.7,39.1,45.0,40.1,36.0,95,84,70,30.23,29.82,9,3,14,0.55
2014-3-30,40.6,39.2,38.3,39.0,38.1,37.0,96,96,95,29.81,29.64,12,4,17,0.78
2014-4-1,53.9,45.7,35.0,35.0,31.9,30.0,81,60,43,30.02,29.97,5,1,10,0.00
2014-4-2,62.2,47.1,37.5,40.0,35.5,31.0,84,66,37,30.10,29.98,7,2,12,0.00
2014-4-3,53.7,43.5,33.3,31.0,27.6,25.0,80,56,35,30.15,30.04,13,3,19,0.00
2014-4-4,50.4,41.6,36.3,36.0,29.9,26.0,94,65,46,30.09,29.79,9,3,16,0.10
2014-4-5,50.1,41.2,36.4,41.0,31.1,22.0,95,71,43,30.02,29.70,14,4,22,0.01
2014-4-6,59.4,42.8,32.4,25.0,23.4,21.0,70,49,23,30.17,30.03,10,3,14,0.00
2014-4-7,54.0,41.9,27.0,38.0,26.7,20.0,88,60,27,30.18,29.91,9,2,16,0.04
2014-4-8,60.1,49.8,44.0,43.0,37.2,34.0,73,63,53,29.61,29.33,13,5,19,0.06
2014-4-9,55.1,46.2,33.5,37.0,27.5,12.0,87,52,25,30.00,29.60,20,5,22,0.00
2014-4-10,65.0,47.1,25.3,36.0,26.6,19.0,78,48,29,30.14,29.90,12,4,24,0.00
2014-4-11,64.9,55.0,45.4,52.0,42.7,35.0,96,66,46,30.03,29.86,7,2,16,0.34
2014-4-12,70.3,52.0,38.4,48.0,39.5,32.0,98,70,24,30.20,30.00,10,2,14,0.01
2014-4-13,79.3,63.5,45.1,55.0,46.3,33.0,72,55,41,30.15,29.86,13,5,25,0.01
2014-4-14,80.0,69.6,62.6,59.0,55.2,52.0,78,61,40,29.89,29.73,17,6,26,0.00
2014-4-15,65.9,54.5,30.5,61.0,50.2,29.0,95,85,69,29.92,29.45,15,5,25,1.01
2014-4-16,41.4,33.6,27.2,28.0,18.8,14.0,92,57,35,30.59,29.93,17,6,23,0.09
2014-4-17,53.0,38.0,21.8,29.0,21.5,18.0,92,56,28,30.75,30.58,6,2,12,0.00
2014-4-18,49.5,40.5,27.1,31.0,27.4,23.0,89,62,42,30.59,30.20,10,3,16,0.00
2014-4-19,60.9,47.2,30.3,36.0,30.0,24.0,90,56,28,30.38,30.18,14,4,21,0.00
2014-4-20,63.6,48.6,28.3,32.0,25.9,22.0,89,47,21,30.49,30.28,11,3,13,0.00
2014-4-21,72.1,56.4,37.3,33.0,25.9,17.0,70,36,13,30.27,29.78,10,3,14,0.00
2014-4-22,70.5,58.7,48.8,54.0,43.5,34.0,96,60,37,29.78,29.46,8,2,17,0.04
2014-4-23,54.4,47.5,43.9,50.0,39.1,30.0,89,74,54,29.79,29.49,17,6,24,0.09
2014-4-24,56.3,47.3,38.3,30.0,20.3,15.0,60,36,20,30.00,29.79,20,7,28,0.00
2014-4-25,65.3,50.1,31.3,39.0,25.0,21.0,75,41,19,30.04,29.73,12,3,19,0.01
2014-4-26,59.2,48.1,41.6,50.0,42.7,39.0,95,83,55,29.85,29.67,5,2,12,0.29
2014-4-27,52.6,47.5,42.3,41.0,37.9,35.0,81,70,58,30.13,29.85,11,4,18,0.00
2014-4-28,61.4,50.2,32.5,40.0,36.0,31.0,95,62,36,30.14,30.00,12,3,20,0.00
2014-4-29,52.7,47.1,41.1,42.0,39.0,36.0,93,74,59,30.43,30.12,8,2,17,0.15
2014-4-30,46.4,43.0,39.9,46.0,41.6,38.0,97,94,91,30.45,30.00,4,2,10,0.81
2014-5-1,76.4,58.4,46.5,62.0,52.6,45.0,98,83,46,29.99,29.61,10,2,17,0.18
2014-5-2,64.7,55.1,41.4,46.0,42.0,37.0,96,64,37,29.80,29.66,8,2,13,0.00
2014-5-3,67.3,56.4,46.7,48.0,42.7,39.0,87,63,36,29.84,29.67,10,3,22,0.01
2014-5-4,63.2,53.2,42.5,48.0,38.1,27.0,94,60,27,29.73,29.58,16,5,29,0.02
2014-5-5,63.1,54.8,47.6,41.0,38.0,35.0,71,55,36,29.88,29.73,12,5,22,0.00
2014-5-6,62.9,54.6,42.9,39.0,33.4,29.0,75,47,30,30.07,29.87,12,3,21,0.00
2014-5-7,66.0,52.1,33.8,38.0,33.5,30.0,86,52,30,30.23,30.08,8,2,11,0.00
2014-5-8,69.4,56.0,44.1,55.0,48.2,36.0,90,75,59,30.14,30.03,5,1,11,0.00
2014-5-9,62.6,58.6,54.4,59.0,56.4,53.0,96,92,88,30.14,29.97,7,2,16,0.33
2014-5-10,80.0,65.6,60.2,68.0,61.3,57.0,98,87,56,29.97,29.73,9,2,17,0.29
2014-5-11,77.9,65.1,48.1,57.0,40.4,30.0,84,45,18,30.03,29.83,11,3,22,0.00
2014-5-12,84.5,67.0,45.7,57.0,48.0,41.0,91,56,27,30.09,29.95,5,1,10,0.00
2014-5-13,74.7,64.4,55.3,53.0,47.6,42.0,77,56,43,30.21,30.01,8,2,15,0.00
2014-5-14,77.3,63.6,49.9,59.0,49.7,41.0,82,62,46,30.25,30.12,12,4,16,0.04
2014-5-15,69.9,65.0,59.8,68.0,62.8,58.0,96,92,83,30.20,30.03,9,2,12,0.36
2014-5-16,73.3,68.6,57.1,67.0,64.9,55.0,94,88,78,30.03,29.77,15,4,22,0.54
2014-5-17,63.8,54.0,43.8,53.0,45.1,41.0,96,74,51,30.12,29.77,10,3,13,1.00
2014-5-18,64.1,53.1,36.8,44.0,37.3,29.0,96,59,33,30.19,30.09,9,3,17,0.00
2014-5-19,67.5,54.3,35.9,43.0,38.6,31.0,92,59,35,30.18,30.04,14,3,24,0.00
2014-5-20,75.5,58.5,38.9,49.0,43.2,37.0,96,62,27,30.11,29.93,10,2,15,0.00
2014-5-21,76.5,62.0,44.0,55.0,48.9,42.0,96,66,36,29.97,29.83,5,1,11,0.00
2014-5-22,64.2,60.1,55.0,59.0,56.8,52.0,95,89,80,29.84,29.76,7,1,11,0.06
2014-5-23,64.4,58.1,52.3,58.0,55.5,51.0,98,91,77,29.94,29.82,5,1,9,0.06
2014-5-24,68.1,59.0,51.9,59.0,54.2,50.0,96,85,62,30.05,29.92,6,2,11,0.04
2014-5-25,80.0,62.7,45.6,58.0,52.0,45.0,98,72,34,30.07,29.96,4,1,10,0.00
2014-5-26,86.3,67.9,51.6,63.0,55.7,50.0,95,69,33,30.00,29.81,6,1,14,0.00
2014-5-27,87.4,69.7,55.4,70.0,60.5,53.0,96,75,43,29.84,29.68,5,1,11,0.32
2014-5-28,64.0,56.2,51.4,62.0,51.8,47.0,95,85,76,30.18,29.76,6,1,10,0.00
2014-5-29,70.6,57.0,38.6,53.0,45.9,38.0,97,69,46,30.22,30.06,7,2,10,0.00
2014-5-30,73.8,60.2,48.0,59.0,51.3,47.0,96,74,42,30.08,29.98,9,2,19,0.14
2014-5-31,70.1,57.8,42.6,54.0,49.6,42.0,98,77,49,30.27,30.08,14,3,18,0.01
2014-6-1,77.9,62.8,43.9,57.0,48.3,43.0,97,65,31,30.35,30.16,5,1,10,0.00
2014-6-2,83.9,70.0,49.6,63.0,54.3,42.0,85,59,44,30.19,29.94,7,2,12,0.00
2014-6-3,88.7,71.0,56.8,71.0,64.0,55.0,98,80,52,29.95,29.75,6,1,14,0.36
2014-6-4,77.3,68.5,59.4,67.0,57.2,50.0,97,70,40,29.85,29.72,7,2,12,0.01
2014-6-5,75.2,64.5,59.7,63.0,56.7,49.0,97,78,46,29.78,29.62,6,2,15,0.27
2014-6-6,74.0,65.1,57.7,56.0,52.7,49.0,80,65,48,29.91,29.76,12,3,16,0.00
2014-6-7,82.2,67.0,49.9,64.0,55.8,49.0,96,70,41,29.98,29.86,7,1,11,0.00
2014-6-8,85.0,69.8,51.2,65.0,57.7,50.0,97,69,38,29.94,29.80,6,1,12,0.00
2014-6-9,68.5,64.8,61.4,65.0,61.4,57.0,96,89,76,29.95,29.85,3,1,9,0.19
2014-6-10,78.3,69.2,61.7,69.0,64.1,60.0,97,84,67,29.98,29.91,4,1,9,0.00
2014-6-11,70.1,62.7,60.4,64.0,60.1,58.0,96,91,79,30.12,29.98,7,1,11,0.42
2014-6-12,64.5,61.4,58.3,64.0,59.7,55.0,98,94,86,30.07,29.92,4,1,9,0.13
2014-6-13,71.3,67.7,63.6,70.0,66.8,63.0,98,97,94,29.92,29.70,4,1,7,0.42
2014-6-14,68.0,63.3,57.1,66.0,55.6,49.0,98,77,58,29.99,29.76,11,3,18,0.04
2014-6-15,75.6,63.4,51.7,60.0,55.0,50.0,94,75,55,30.10,29.98,9,3,16,0.00
2014-6-16,83.0,69.2,50.8,64.0,58.2,50.0,98,71,47,30.15,29.97,6,1,8,0.00
2014-6-17,88.9,76.9,59.7,72.0,65.4,57.0,94,69,52,30.02,29.77,7,2,11,0.00
2014-6-18,79.5,72.3,62.8,69.0,64.7,61.0,97,78,60,29.96,29.75,10,2,23,0.35
2014-6-19,81.9,71.1,62.9,67.0,59.5,47.0,97,70,39,30.00,29.91,9,2,15,0.03
2014-6-20,76.2,66.2,50.6,54.0,48.8,45.0,89,55,35,29.99,29.88,11,3,15,0.00
2014-6-21,75.1,62.3,45.1,60.0,50.5,44.0,96,69,41,29.98,29.85,9,1,11,0.00
2014-6-22,80.7,64.7,48.7,57.0,52.2,48.0,98,69,35,29.98,29.90,7,2,11,0.00
2014-6-23,84.0,69.5,51.4,63.0,56.8,50.0,97,68,38,30.09,29.98,7,2,13,0.00
2014-6-24,80.7,71.2,64.3,66.0,59.8,56.0,78,68,53,30.08,29.93,10,3,17,0.00
2014-6-25,84.8,73.5,67.8,73.0,66.6,59.0,98,79,65,29.93,29.77,10,2,19,5.73
2014-6-26,80.7,72.2,67.4,71.0,66.9,61.0,99,85,59,29.97,29.78,11,2,14,0.07
2014-6-27,82.4,70.0,57.7,65.0,58.2,50.0,97,71,33,30.17,29.97,9,2,14,0.00
2014-6-28,85.7,70.0,54.5,66.0,59.2,53.0,97,73,34,30.26,30.17,3,1,8,0.00
2014-6-29,86.7,74.1,58.3,69.0,62.6,57.0,96,70,44,30.22,30.03,6,2,12,0.00
2014-6-30,83.9,74.7,61.3,70.0,64.4,57.0,88,71,59,30.05,29.86,12,2,14,0.00
2014-7-1,90.1,80.2,68.5,76.0,70.6,65.0,90,73,58,29.89,29.71,14,3,17,0.00
2014-7-2,90.2,77.1,71.1,79.0,72.1,69.0,96,85,67,29.87,29.74,7,2,18,0.21
2014-7-3,87.8,74.0,67.7,77.0,71.1,67.0,98,91,69,29.94,29.81,7,1,14,0.49
2014-7-4,69.7,66.5,63.2,67.0,63.9,54.0,98,91,71,30.01,29.89,8,1,11,0.98
2014-7-5,80.5,69.9,59.1,57.0,52.4,46.0,84,56,36,30.07,29.95,13,5,21,0.00
2014-7-6,83.8,69.3,51.2,62.0,57.0,50.0,97,68,38,30.04,29.84,7,2,13,0.00
2014-7-7,87.2,75.5,68.5,75.0,67.0,59.0,93,75,57,29.85,29.64,8,2,14,0.38
2014-7-8,86.8,77.3,68.5,76.0,70.5,66.0,94,80,62,29.75,29.57,10,3,27,0.25
2014-7-9,84.3,73.6,65.3,70.0,66.7,63.0,96,80,58,29.94,29.65,10,2,14,0.01
2014-7-10,79.5,68.3,57.7,64.0,60.2,57.0,98,77,51,30.13,29.94,10,2,10,0.01
2014-7-11,81.0,67.7,54.6,63.0,57.8,54.0,98,74,43,30.22,30.14,6,2,9,0.00
2014-7-12,86.6,71.8,55.0,70.0,63.0,54.0,98,76,50,30.19,30.04,7,2,12,0.00
2014-7-13,79.8,73.1,69.2,73.0,67.7,61.0,97,83,71,30.05,29.81,9,2,16,0.33
2014-7-14,82.4,74.6,69.1,74.0,70.8,68.0,98,88,69,29.88,29.79,6,1,9,0.03
2014-7-15,83.4,74.1,68.8,74.0,71.0,68.0,98,90,70,29.79,29.68,9,2,14,2.66
2014-7-16,78.7,70.5,62.8,69.0,64.1,57.0,98,81,61,29.87,29.71,8,1,11,0.06
2014-7-17,77.1,65.1,54.0,64.0,58.2,53.0,98,80,54,30.09,29.88,8,1,15,0.00
2014-7-18,78.9,65.0,50.1,66.0,57.2,49.0,98,79,49,30.22,30.10,9,1,10,0.00
2014-7-19,76.8,65.6,56.6,68.0,61.0,56.0,98,86,61,30.25,30.16,6,0,6,0.00
2014-7-20,80.3,67.4,58.9,67.0,60.6,58.0,97,81,51,30.18,30.07,4,1,6,0.03
2014-7-21,83.1,69.3,56.6,70.0,63.3,56.0,98,83,57,30.18,30.08,4,1,7,0.00
2014-7-22,88.0,75.7,61.1,74.0,68.5,60.0,98,80,60,30.12,29.94,10,2,12,0.00
2014-7-23,90.0,78.4,69.3,77.0,72.1,67.0,96,82,62,29.95,29.68,7,2,13,0.85
2014-7-24,76.8,70.2,64.9,67.0,61.4,55.0,96,75,55,29.91,29.78,9,2,13,0.01
2014-7-25,80.9,67.9,52.2,65.0,58.5,51.0,95,73,50,30.02,29.91,5,1,8,0.00
2014-7-26,80.3,69.6,57.6,67.0,61.6,56.0,96,77,55,29.95,29.83,7,2,10,0.00
2014-7-27,84.4,74.2,67.7,73.0,68.5,62.0,96,83,63,29.84,29.58,12,2,14,0.10
2014-7-28,76.9,68.7,63.9,71.0,65.7,58.0,98,90,80,29.65,29.41,9,2,16,0.73
2014-7-29,73.4,65.1,55.5,60.0,55.6,53.0,96,73,51,29.94,29.65,8,2,14,0.00
2014-7-30,76.6,65.5,53.0,61.0,57.2,52.0,98,77,48,30.01,29.93,6,1,8,0.00
2014-7-31,80.2,67.2,56.6,66.0,60.6,55.0,96,81,57,30.09,29.99,8,2,14,0.00
2014-8-1,83.1,70.0,59.1,71.0,64.6,58.0,98,84,61,30.16,30.11,6,1,11,0.00
2014-8-2,79.6,70.6,60.9,68.0,64.3,60.0,97,82,54,30.16,30.06,5,1,11,0.00
2014-8-3,81.0,68.2,58.3,67.0,63.0,57.0,98,85,59,30.10,29.97,7,1,7,0.00
2014-8-4,83.1,71.3,61.8,71.0,65.9,61.0,98,84,57,30.03,29.97,5,1,8,0.02
2014-8-5,85.0,70.6,58.8,71.0,65.0,58.0,99,84,54,30.02,29.85,12,1,18,1.21
2014-8-6,79.2,70.0,61.9,68.0,62.5,56.0,98,79,52,29.92,29.80,7,1,11,0.01
2014-8-7,76.8,64.3,53.2,62.0,56.5,52.0,98,78,44,29.99,29.87,10,2,18,0.01
2014-8-8,80.5,65.3,50.1,66.0,58.0,49.0,98,80,51,30.07,29.99,7,1,11,0.00
2014-8-9,82.2,67.4,53.3,67.0,59.5,53.0,98,79,45,30.12,30.03,5,1,9,0.00
2014-8-10,83.9,68.3,54.9,68.0,59.7,54.0,98,78,40,30.14,30.05,4,1,9,0.00
2014-8-11,85.7,70.0,55.1,70.0,61.0,54.0,98,76,47,30.12,30.02,5,1,11,0.00
2014-8-12,78.8,68.8,59.8,67.0,64.2,58.0,97,86,64,30.06,29.86,6,1,19,0.02
2014-8-13,72.6,68.2,59.7,69.0,65.4,58.0,96,90,84,29.86,29.63,5,1,11,0.20
2014-8-14,75.0,64.5,51.1,60.0,53.9,49.0,95,71,41,29.86,29.73,7,2,11,0.01
2014-8-15,67.0,59.6,51.5,58.0,54.5,50.0,98,84,62,29.92,29.84,7,1,10,0.00
2014-8-16,74.8,63.9,52.0,59.0,55.9,51.0,97,77,53,29.96,29.85,7,1,10,0.00
2014-8-17,76.7,65.9,56.4,66.0,58.5,55.0,97,79,51,29.87,29.80,11,2,16,0.18
2014-8-18,74.9,63.1,52.1,59.0,54.6,50.0,97,76,49,29.88,29.80,10,2,13,0.00
2014-8-19,79.8,62.6,46.4,66.0,55.5,45.0,98,80,49,29.92,29.85,5,1,8,0.00
2014-8-20,83.7,70.9,57.7,72.0,64.6,56.0,98,82,60,29.97,29.90,5,1,14,0.00
2014-8-21,78.2,70.7,64.0,69.0,64.7,60.0,95,82,70,30.01,29.94,9,2,10,0.09
2014-8-22,69.3,66.2,63.5,65.0,63.8,62.0,97,91,80,30.05,29.96,4,1,9,0.40
2014-8-23,73.2,66.5,59.2,66.0,62.1,58.0,98,86,67,30.11,30.04,5,1,9,0.00
2014-8-24,78.8,65.9,55.3,67.0,61.2,55.0,98,86,59,30.15,30.07,8,2,11,0.00
2014-8-25,86.0,67.8,55.9,67.0,61.3,55.0,98,83,44,30.18,30.08,4,1,8,0.01
2014-8-26,87.3,70.9,56.2,70.0,63.0,55.0,99,79,48,30.15,29.99,5,1,11,0.01
2014-8-27,87.9,72.9,62.5,75.0,67.5,60.0,96,84,60,30.00,29.84,6,1,9,0.25
2014-8-28,76.5,68.6,60.8,62.0,56.6,52.0,87,67,44,30.04,29.85,11,4,19,0.00
2014-8-29,76.8,62.2,48.7,62.0,54.9,48.0,98,79,52,30.20,30.04,7,1,11,0.00
2014-8-30,79.5,67.8,53.0,64.0,59.3,51.0,97,76,55,30.24,30.06,8,2,17,0.00
2014-8-31,79.3,73.4,69.6,73.0,68.7,64.0,97,85,77,30.06,29.90,8,2,13,0.04
2014-9-1,87.7,76.1,66.3,74.0,70.4,66.0,99,84,59,29.98,29.85,5,1,9,0.00
2014-9-2,91.0,79.0,69.8,76.0,71.9,68.0,96,80,54,29.88,29.69,9,2,13,0.31
2014-9-3,82.9,69.7,56.5,68.0,60.5,55.0,98,76,41,30.08,29.75,10,2,15,0.00
2014-9-4,86.6,69.9,52.3,65.0,59.4,52.0,98,73,43,30.16,30.04,7,1,11,0.00
2014-9-5,88.2,75.4,60.9,74.0,68.0,60.0,98,79,61,30.11,29.92,9,2,15,0.00
2014-9-6,88.8,75.7,62.6,77.0,69.0,57.0,94,81,54,29.94,29.75,12,2,16,0.13
2014-9-7,76.2,65.6,52.7,61.0,56.0,51.0,96,74,42,30.19,29.92,9,2,11,0.00
2014-9-8,77.0,61.5,48.4,59.0,53.9,48.0,98,79,45,30.32,30.20,8,1,10,0.00
2014-9-9,73.6,61.0,47.1,61.0,55.0,46.0,98,82,60,30.30,30.14,6,1,9,0.01
2014-9-10,77.3,63.4,48.6,61.0,55.9,48.0,98,79,50,30.13,29.95,6,1,10,0.00
2014-9-11,77.2,67.7,61.4,71.0,63.1,54.0,92,85,77,29.96,29.74,11,3,19,0.00
2014-9-12,66.8,60.1,53.4,54.0,50.4,47.0,84,71,57,30.22,29.96,11,3,18,0.00
2014-9-13,57.5,53.0,45.3,57.0,49.9,43.0,97,89,78,30.23,30.08,3,1,9,0.22
2014-9-14,62.7,53.1,42.1,50.0,45.7,41.0,96,78,56,30.27,30.16,9,3,13,0.01
2014-9-15,67.2,52.7,40.1,51.0,45.5,39.0,98,80,41,30.24,30.05,6,1,12,0.00
2014-9-16,66.7,56.3,46.4,58.0,52.7,45.0,96,88,68,30.04,29.94,4,1,6,0.11
2014-9-17,70.4,52.8,39.0,53.0,46.3,38.0,98,82,44,30.04,29.93,4,1,7,0.01
2014-9-18,71.7,54.7,39.6,55.0,48.2,39.0,98,81,52,30.15,29.94,8,1,12,0.00
2014-9-19,63.9,52.0,42.8,46.0,41.5,36.0,88,69,43,30.36,30.16,7,2,11,0.00
2014-9-20,73.6,62.3,49.2,60.0,54.2,44.0,87,75,61,30.31,30.02,14,3,21,0.00
2014-9-21,79.1,69.6,61.9,68.0,63.8,59.0,94,82,66,30.02,29.55,9,2,16,0.00
2014-9-22,66.1,59.1,49.1,59.0,48.3,40.0,96,69,47,30.12,29.58,12,4,22,0.01
2014-9-23,71.0,54.3,39.5,55.0,46.0,38.0,97,76,46,30.41,30.13,6,1,10,0.00
2014-9-24,73.3,56.3,43.6,57.0,49.4,43.0,98,81,44,30.56,30.41,5,1,8,0.00
2014-9-25,66.7,56.3,49.3,54.0,51.5,48.0,98,85,59,30.48,30.23,6,1,11,0.00
2014-9-26,76.8,59.7,48.0,58.0,53.1,47.0,98,82,47,30.25,30.14,10,2,15,0.00
2014-9-27,80.6,62.4,47.7,61.0,55.1,47.0,98,80,47,30.22,30.13,9,2,13,0.00
2014-9-28,85.7,64.3,48.9,64.0,57.4,48.0,98,81,44,30.17,29.98,3,0,7,0.01
2014-9-29,74.6,62.3,51.6,63.0,57.2,51.0,98,85,48,29.97,29.88,3,0,6,0.00
2014-9-30,73.4,63.3,56.0,63.0,58.9,55.0,98,86,67,29.98,29.88,5,1,9,0.00
2014-10-1,63.2,58.9,53.9,61.0,57.6,53.0,98,95,89,30.09,29.98,4,1,8,0.21
2014-10-2,69.5,61.7,56.6,61.0,58.3,55.0,98,89,65,30.16,30.06,6,1,10,0.00
2014-10-3,73.6,60.7,47.2,56.0,51.3,46.0,98,74,43,30.09,29.81,11,2,11,0.00
2014-10-4,59.1,57.1,51.7,58.0,55.0,47.0,97,93,83,29.80,29.48,6,1,11,0.47
2014-10-5,61.3,48.8,36.4,46.0,38.9,35.0,95,72,39,29.95,29.64,4,1,9,0.00
2014-10-6,69.6,52.2,34.7,50.0,42.7,34.0,98,73,39,30.04,29.94,12,2,17,0.01
2014-10-7,72.2,62.4,54.2,57.0,53.4,48.0,97,74,44,30.01,29.83,12,2,19,0.03
2014-10-8,71.6,63.2,53.4,59.0,50.7,37.0,95,67,37,29.90,29.66,9,3,16,0.35
2014-10-9,68.1,54.6,41.6,44.0,39.8,36.0,87,61,32,30.01,29.85,10,2,14,0.00
2014-10-10,63.7,49.8,35.3,44.0,39.9,34.0,97,72,41,30.11,30.00,4,1,9,0.00
2014-10-11,60.3,49.7,43.4,48.0,44.0,39.0,95,82,54,30.16,30.03,7,1,8,0.02
2014-10-12,62.9,46.6,33.3,44.0,38.3,32.0,97,76,41,30.28,30.16,7,1,11,0.00
2014-10-13,60.9,53.3,36.9,54.0,46.9,35.0,96,79,70,30.29,30.20,7,2,14,0.00
2014-10-14,77.1,66.9,56.9,66.0,61.6,55.0,97,84,60,30.20,30.04,13,3,15,0.01
2014-10-15,81.1,72.6,68.3,69.0,66.4,63.0,96,81,63,30.04,29.80,10,3,22,0.33
2014-10-16,71.6,67.4,58.9,69.0,63.8,55.0,97,88,71,29.80,29.60,11,2,14,0.82
2014-10-17,71.9,61.9,51.0,57.0,53.1,50.0,98,75,49,29.66,29.57,8,2,15,0.00
2014-10-18,62.7,57.9,52.0,56.0,51.9,43.0,93,81,70,29.68,29.51,8,2,15,0.09
2014-10-19,52.4,46.1,37.6,44.0,34.0,27.0,76,64,49,30.03,29.68,13,5,22,0.01
2014-10-20,52.9,43.6,29.8,41.0,35.2,28.0,96,74,56,30.06,29.92,6,1,12,0.00
2014-10-21,52.9,50.3,46.9,51.0,47.7,41.0,96,91,66,29.97,29.87,6,1,9,0.54
2014-10-22,52.6,50.2,48.7,49.0,47.8,47.0,96,91,84,30.04,29.85,13,5,22,0.08
2014-10-23,49.0,47.6,46.0,47.0,45.8,45.0,95,93,88,29.88,29.75,14,6,24,0.53
2014-10-24,54.3,48.8,46.3,48.0,45.9,44.0,96,90,74,29.84,29.76,11,3,18,0.31
2014-10-25,65.6,51.4,35.1,49.0,43.5,34.0,98,77,52,29.83,29.51,9,1,17,0.06
2014-10-26,54.0,49.3,44.0,48.0,43.3,41.0,97,81,63,29.76,29.47,13,3,20,0.00
2014-10-27,62.3,49.8,38.6,44.0,41.2,37.0,94,74,43,30.00,29.77,10,2,15,0.00
2014-10-28,70.6,54.4,38.2,52.0,45.6,37.0,96,75,48,30.01,29.83,6,1,10,0.01
2014-10-29,63.5,54.4,42.1,57.0,51.6,41.0,97,90,71,29.91,29.79,5,1,10,0.19
2014-10-30,55.5,45.4,36.6,47.0,39.8,34.0,98,82,55,30.02,29.90,9,2,13,0.00
2014-10-31,52.2,41.0,30.1,41.0,35.9,29.0,98,83,61,30.04,29.91,6,1,9,0.01
2014-11-1,46.6,42.5,38.6,42.0,36.7,33.0,92,80,63,29.94,29.85,11,5,18,0.08
2014-11-2,46.4,41.0,37.9,36.0,25.9,18.0,87,57,39,29.99,29.85,21,8,29,0.01
2014-11-3,59.1,45.5,35.9,37.0,31.2,23.0,86,60,33,30.08,29.96,12,3,21,0.00
2014-11-4,67.5,55.6,41.2,39.0,33.6,28.0,84,48,28,30.10,29.93,9,2,16,0.00
2014-11-5,62.5,53.4,38.8,43.0,34.9,27.0,84,52,27,30.11,29.91,6,1,12,0.00
2014-11-6,47.3,43.0,39.3,43.0,40.1,35.0,96,89,76,30.10,29.56,4,1,11,0.12
2014-11-7,47.9,42.6,37.2,42.0,34.8,27.0,95,75,56,29.89,29.56,12,4,21,0.00
2014-11-8,47.8,41.7,35.0,31.0,26.7,24.0,72,56,44,29.99,29.82,9,3,16,0.00
2014-11-9,54.1,44.5,30.4,35.0,32.6,28.0,93,65,44,30.00,29.83,5,2,11,0.00
2014-11-10,58.4,44.7,30.2,38.0,34.1,29.0,95,69,41,30.13,29.99,7,1,11,0.00
2014-11-11,61.8,53.4,44.1,53.0,47.2,36.0,89,79,61,30.09,29.88,7,3,14,0.00
2014-11-12,63.0,50.0,38.4,55.0,44.3,29.0,96,81,67,30.10,29.82,13,3,18,0.02
2014-11-13,44.5,37.0,27.4,33.0,28.6,24.0,95,73,50,30.11,29.97,4,1,10,0.07
2014-11-14,40.3,34.7,31.1,31.0,25.9,21.0,96,73,48,30.14,29.94,8,2,16,0.06
2014-11-15,40.3,30.5,21.2,24.0,19.7,17.0,88,66,39,30.34,30.15,13,2,17,0.00
2014-11-16,39.7,33.4,21.4,28.0,23.6,18.0,88,68,51,30.34,30.06,8,2,17,0.00
2014-11-17,42.2,38.3,34.3,41.0,36.1,28.0,97,92,65,30.05,29.45,7,2,10,0.62
2014-11-18,39.5,30.0,22.5,36.0,14.6,4.0,96,55,34,29.96,29.52,15,4,20,0.01
2014-11-19,33.2,25.7,16.2,14.0,9.4,6.0,71,51,37,30.18,29.96,11,3,18,0.00
2014-11-20,43.2,31.5,19.3,23.0,17.6,13.0,90,59,34,29.98,29.77,9,3,17,0.00
2014-11-21,33.0,25.1,14.5,17.0,11.2,5.0,90,57,38,30.44,29.96,13,3,19,0.00
2014-11-22,41.1,30.4,13.3,25.0,15.4,10.0,86,57,35,30.43,30.06,14,4,21,0.02
2014-11-23,56.6,47.6,39.2,33.0,28.2,24.0,59,48,37,30.13,29.97,7,2,14,0.00
2014-11-24,70.5,59.5,42.0,62.0,53.2,33.0,98,81,52,29.96,29.43,13,3,20,0.57
2014-11-25,61.4,51.7,35.9,55.0,36.7,29.0,81,59,39,30.13,29.65,8,2,12,0.00
2014-11-26,39.9,35.3,31.8,32.0,30.4,28.0,96,83,66,30.20,29.87,4,1,9,0.01
2014-11-27,29.6,28.0,25.8,28.0,26.9,25.0,96,95,95,30.04,30.01,2,1,5,0.06
2014-11-28,33.4,26.0,13.7,27.0,21.1,12.0,96,82,64,30.25,30.02,11,2,15,0.11
2014-11-29,30.2,21.6,8.8,23.0,16.3,7.0,92,80,69,30.33,30.17,7,2,14,0.00
2014-11-30,43.3,38.4,30.3,36.0,31.9,23.0,83,77,74,30.17,29.98,14,4,20,0.31
2014-12-1,47.1,42.4,34.6,42.0,34.4,21.0,84,74,56,30.49,29.97,11,3,18,0.00
2014-12-2,34.3,31.1,26.6,32.0,22.3,17.0,95,71,57,30.68,30.32,13,2,18,0.10
2014-12-3,42.4,38.1,32.6,40.0,35.6,29.0,97,90,68,30.31,29.89,10,3,16,0.09
2014-12-4,39.3,33.3,22.3,29.0,22.6,19.0,90,66,48,30.53,30.16,10,2,14,0.00
2014-12-5,33.9,27.6,18.6,32.0,23.1,17.0,95,84,68,30.63,30.35,3,0,7,0.09
2014-12-6,36.1,34.7,32.5,35.0,33.8,31.0,97,96,94,30.34,30.14,13,2,18,0.53
2014-12-7,35.3,29.2,17.5,34.0,18.7,0.0,93,66,46,30.71,30.30,15,8,23,0.01
2014-12-8,27.4,21.0,13.3,22.0,11.4,1.0,80,67,50,30.74,30.43,7,2,14,0.00
2014-12-9,37.3,32.2,27.4,36.0,29.8,23.0,96,91,81,30.41,29.68,19,5,24,1.10
2014-12-10,37.2,33.3,30.3,36.0,31.2,26.0,96,92,83,29.69,29.53,13,3,17,0.18
2014-12-11,33.8,30.4,27.9,30.0,28.1,25.0,95,91,83,29.83,29.53,4,0,4,0.08
2014-12-12,33.5,31.3,29.3,27.0,24.9,24.0,84,77,72,29.97,29.82,14,4,17,0.01
2014-12-13,39.2,34.5,31.2,31.0,28.4,26.0,88,78,62,29.97,29.85,12,4,18,0.00
2014-12-14,41.4,37.8,34.5,34.0,32.8,31.0,91,82,73,29.97,29.85,11,2,15,0.00
2014-12-15,39.4,36.1,32.9,32.0,30.4,29.0,88,79,72,30.12,29.97,10,4,17,0.00
2014-12-16,39.5,35.0,27.0,39.0,33.1,26.0,97,92,87,30.10,29.84,5,1,10,0.08
2014-12-17,43.3,40.3,35.8,42.0,38.3,33.0,98,93,80,29.84,29.76,9,1,10,0.09
2014-12-18,40.9,36.5,34.4,34.0,29.4,27.0,94,76,65,29.93,29.82,16,4,21,0.01
2014-12-19,34.8,31.2,27.7,29.0,23.6,21.0,82,73,66,30.19,29.93,14,4,22,0.00
2014-12-20,28.9,27.5,25.5,22.0,20.8,19.0,78,76,74,30.30,30.19,7,3,12,0.00
2014-12-21,31.6,29.6,27.5,28.0,25.7,22.0,93,85,76,30.35,30.27,6,2,10,0.00
2014-12-22,35.2,32.2,29.6,32.0,29.6,27.0,93,90,86,30.35,30.19,3,1,5,0.01
2014-12-23,40.8,36.8,33.3,40.0,36.0,32.0,98,97,92,30.21,30.08,3,0,4,0.27
2014-12-24,52.7,43.2,38.2,53.0,42.7,38.0,99,98,97,30.07,29.45,8,1,11,0.31
2014-12-25,58.7,50.7,45.5,57.0,40.3,30.0,98,70,50,30.00,29.40,16,4,18,0.03
2014-12-26,49.6,37.5,26.6,32.0,29.1,25.0,94,74,50,30.17,30.13,4,1,11,0.00
2014-12-27,51.8,39.6,26.5,38.0,32.5,25.0,96,77,57,30.23,29.94,7,1,14,0.00
2014-12-28,48.9,42.9,36.5,43.0,35.6,24.0,96,76,58,30.05,29.80,10,2,16,0.09
2014-12-29,37.1,33.2,24.0,26.0,23.1,13.0,83,67,57,30.27,30.04,6,2,10,0.00
2014-12-30,29.6,23.1,13.8,14.0,10.7,7.0,83,60,45,30.40,30.25,12,3,16,0.00
2014-12-31,29.2,21.8,14.7,15.0,7.9,2.0,88,58,36,30.31,30.08,10,2,18,0.00
2015-1-1,33.3,27.2,20.6,17.0,10.6,7.0,65,50,39,30.07,29.86,10,4,18,0.00
2015-1-2,38.0,31.8,25.1,26.0,19.6,15.0,73,61,45,30.45,29.93,10,2,15,0.00